Time;durP1;ratioP1;P1;durP2;ratioP2;P2;SDS_P1;SDS_P2;PMS_P1;PMS_P2;Temp;Humidity;BMP_temperature;BMP_pressure;BME280_temperature;BME280_humidity;BME280_pressure;Samples;Min_cycle;Max_cycle;Signal;HPM_P1;HPM_P2
2024/03/14 01:00:33;;;;;;;23.77;15.02;;;12.10;85.60;;;;;;5070515;28;20086;-78
2024/03/14 01:02:59;;;;;;;20.00;13.80;;;12.10;85.50;;;;;;5091884;28;20048;-78
2024/03/14 01:05:25;;;;;;;18.90;13.55;;;12.10;85.40;;;;;;5093667;28;20503;-79
2024/03/14 01:07:50;;;;;;;21.17;12.93;;;12.00;85.30;;;;;;5094044;28;20036;-77
2024/03/14 01:10:16;;;;;;;17.70;12.95;;;12.00;85.40;;;;;;5075656;28;20131;-80
2024/03/14 01:12:42;;;;;;;21.23;13.88;;;12.00;85.50;;;;;;5093376;28;20037;-79
2024/03/14 01:15:08;;;;;;;20.08;12.65;;;12.00;86.10;;;;;;5093431;28;20384;-76
2024/03/14 01:17:34;;;;;;;23.95;12.98;;;12.00;85.30;;;;;;5094516;28;20373;-77
2024/03/14 01:20:02;;;;;;;15.75;12.45;;;11.90;85.50;;;;;;5094420;28;20487;-77
2024/03/14 01:22:29;;;;;;;20.02;14.30;;;11.90;85.50;;;;;;5093249;28;20036;-77
2024/03/14 01:24:54;;;;;;;18.92;13.95;;;11.90;85.70;;;;;;5093666;28;20029;-78
2024/03/14 01:27:20;;;;;;;20.48;13.98;;;11.90;85.90;;;;;;5093244;28;20510;-77
2024/03/14 01:29:46;;;;;;;20.08;14.77;;;11.90;85.90;;;;;;5093640;28;20510;-77
2024/03/14 01:32:12;;;;;;;19.45;14.30;;;11.80;86.00;;;;;;5093347;28;20075;-78
2024/03/14 01:34:38;;;;;;;20.30;14.35;;;11.90;86.20;;;;;;5094226;28;20043;-79
2024/03/14 01:37:08;;;;;;;18.77;13.25;;;11.80;86.40;;;;;;5094046;28;20391;-78
2024/03/14 01:39:35;;;;;;;18.58;14.07;;;11.80;86.60;;;;;;5094191;28;20055;-78
2024/03/14 01:42:03;;;;;;;19.23;13.65;;;11.80;86.40;;;;;;5093307;28;20032;-77
2024/03/14 01:44:56;;;;;;;20.23;14.48;;;11.80;86.80;;;;;;5093022;28;20480;-77
2024/03/14 01:47:23;;;;;;;19.73;13.07;;;11.80;86.80;;;;;;5093503;28;20032;-79
2024/03/14 01:49:51;;;;;;;19.42;14.10;;;11.80;87.00;;;;;;5092947;28;20133;-78
2024/03/14 01:52:17;;;;;;;23.23;13.65;;;11.70;86.80;;;;;;5096087;28;20032;-78
2024/03/14 01:54:43;;;;;;;18.98;13.52;;;11.60;87.10;;;;;;5092984;28;20107;-78
2024/03/14 01:57:09;;;;;;;22.25;14.70;;;11.60;87.40;;;;;;5092821;28;20079;-77
2024/03/14 01:59:36;;;;;;;18.17;13.50;;;11.50;87.30;;;;;;5094415;28;20035;-78
2024/03/14 02:02:02;;;;;;;22.23;14.73;;;11.40;87.50;;;;;;5094049;28;20093;-78
2024/03/14 02:04:41;;;;;;;19.08;13.30;;;11.40;87.60;;;;;;5074461;28;20024;-79
2024/03/14 02:07:13;;;;;;;19.15;14.30;;;11.40;88.20;;;;;;5092712;28;20484;-78
2024/03/14 02:09:43;;;;;;;22.30;13.40;;;11.50;88.10;;;;;;5092945;28;20046;-80
2024/03/14 02:12:10;;;;;;;22.00;13.52;;;11.60;87.90;;;;;;5092778;28;20040;-77
2024/03/14 02:14:36;;;;;;;20.55;13.80;;;11.70;87.70;;;;;;5092761;28;20462;-75
2024/03/14 02:17:05;;;;;;;19.88;12.88;;;11.70;87.70;;;;;;5092657;28;20081;-80
2024/03/14 02:19:31;;;;;;;23.38;13.20;;;11.80;87.60;;;;;;5092582;28;20155;-79
2024/03/14 02:22:01;;;;;;;20.33;13.23;;;11.80;87.60;;;;;;5093020;28;20063;-79
2024/03/14 02:24:27;;;;;;;19.40;13.02;;;11.90;87.60;;;;;;5092942;28;20035;-78
2024/03/14 02:26:54;;;;;;;17.88;12.35;;;11.80;87.50;;;;;;5096985;28;20043;-77
2024/03/14 02:29:20;;;;;;;18.98;12.48;;;11.80;87.90;;;;;;5097119;28;20028;-79
2024/03/14 02:31:46;;;;;;;14.75;11.07;;;11.80;87.60;;;;;;5096818;28;20105;-79
2024/03/14 02:34:12;;;;;;;20.58;12.07;;;11.70;87.90;;;;;;5096486;28;20034;-78
2024/03/14 02:36:37;;;;;;;17.38;12.23;;;11.80;87.90;;;;;;5096536;28;20029;-79
2024/03/14 02:39:05;;;;;;;16.23;11.90;;;11.80;88.00;;;;;;5096536;28;20398;-78
2024/03/14 02:41:31;;;;;;;16.17;10.88;;;11.70;87.80;;;;;;5096623;28;20483;-78
2024/03/14 02:43:58;;;;;;;20.27;12.25;;;11.70;87.90;;;;;;5096319;28;20032;-78
2024/03/14 02:46:27;;;;;;;15.80;11.15;;;11.70;87.70;;;;;;5096121;28;20032;-78
2024/03/14 02:48:53;;;;;;;17.40;11.57;;;11.60;88.10;;;;;;5096332;28;20063;-78
2024/03/14 02:51:19;;;;;;;15.13;11.75;;;11.60;88.20;;;;;;5096171;28;20024;-77
2024/03/14 02:53:46;;;;;;;18.83;12.18;;;11.60;88.40;;;;;;5096382;28;20185;-79
2024/03/14 02:56:12;;;;;;;20.58;12.07;;;11.60;88.10;;;;;;5096380;28;20064;-79
2024/03/14 02:58:37;;;;;;;17.98;11.60;;;11.50;88.30;;;;;;5095831;28;20055;-78
2024/03/14 03:01:08;;;;;;;23.23;12.73;;;11.40;88.20;;;;;;5095808;28;20056;-79
2024/03/14 03:03:36;;;;;;;18.58;12.15;;;11.30;88.50;;;;;;5096223;28;20032;-77
2024/03/14 03:06:10;;;;;;;16.27;12.13;;;11.30;88.70;;;;;;5095797;28;20043;-77
2024/03/14 03:08:35;;;;;;;;;;;11.40;88.60;;;;;;5077946;28;20043;-78
2024/03/14 03:11:01;;;;;;;18.10;11.65;;;11.40;88.30;;;;;;5095663;28;19904;-78
2024/03/14 03:13:27;;;;;;;16.08;11.43;;;11.40;88.40;;;;;;5095661;28;20095;-78
2024/03/14 03:15:53;;;;;;;18.23;11.32;;;11.40;88.10;;;;;;5095716;28;20089;-77
2024/03/14 03:18:18;;;;;;;17.08;10.68;;;11.40;88.20;;;;;;5095642;28;20499;-78
2024/03/14 03:20:44;;;;;;;15.80;11.30;;;11.40;88.00;;;;;;5095842;28;20116;-77
2024/03/14 03:23:10;;;;;;;15.85;10.73;;;11.40;87.90;;;;;;5095634;28;20111;-78
2024/03/14 03:25:36;;;;;;;16.15;12.27;;;11.30;87.80;;;;;;5095474;28;20409;-76
2024/03/14 03:28:13;;;;;;;19.75;11.43;;;11.30;87.70;;;;;;5095453;28;20484;-78
2024/03/14 03:30:39;;;;;;;19.27;11.48;;;11.30;87.90;;;;;;5095387;28;20023;-77
2024/03/14 03:33:07;;;;;;;15.50;11.88;;;11.20;87.90;;;;;;5095450;28;20039;-78
2024/03/14 03:35:33;;;;;;;16.02;11.82;;;11.20;88.20;;;;;;5077259;28;20038;-78
2024/03/14 03:38:00;;;;;;;18.17;12.75;;;11.20;88.50;;;;;;5095280;28;20024;-77
2024/03/14 03:40:30;;;;;;;16.92;12.20;;;11.10;88.30;;;;;;5095235;28;20476;-77
2024/03/14 03:42:55;;;;;;;16.85;11.85;;;11.10;88.50;;;;;;5093918;28;20036;-78
2024/03/14 03:45:21;;;;;;;16.27;12.40;;;11.10;88.30;;;;;;5095800;28;20047;-78
2024/03/14 03:47:47;;;;;;;21.17;11.98;;;11.10;88.40;;;;;;5099391;28;20052;-77
2024/03/14 03:50:12;;;;;;;16.38;12.30;;;11.10;88.60;;;;;;5096595;28;20032;-77
2024/03/14 03:52:39;;;;;;;17.88;12.27;;;11.10;88.80;;;;;;5096234;28;20043;-75
2024/03/14 03:55:06;;;;;;;17.27;12.93;;;11.00;88.90;;;;;;5096105;28;20032;-77
2024/03/14 03:57:34;;;;;;;20.33;13.13;;;11.00;88.80;;;;;;5094975;28;20028;-77
2024/03/14 04:00:00;;;;;;;21.42;15.52;;;11.00;89.30;;;;;;5094852;28;20047;-78
2024/03/14 04:02:26;;;;;;;17.00;13.25;;;10.90;88.90;;;;;;5094368;28;20052;-77
2024/03/14 04:04:57;;;;;;;17.30;12.95;;;10.80;89.30;;;;;;5094631;28;20044;-78
2024/03/14 04:07:26;;;;;;;17.92;13.13;;;10.80;89.60;;;;;;5094640;28;20040;-78
2024/03/14 04:09:52;;;;;;;17.92;12.65;;;10.80;89.70;;;;;;5097440;28;20171;-78
2024/03/14 04:12:18;;;;;;;17.88;13.23;;;10.80;89.70;;;;;;5097641;28;20063;-78
2024/03/14 04:14:44;;;;;;;17.30;12.40;;;10.80;89.60;;;;;;5097258;28;20074;-77
2024/03/14 04:17:11;;;;;;;19.52;11.75;;;10.80;89.60;;;;;;5083276;22;20056;-79
2024/03/14 04:19:37;;;;;;;16.77;12.88;;;10.80;89.70;;;;;;5037101;28;20036;-76
2024/03/14 04:22:05;;;;;;;16.40;12.27;;;10.80;90.00;;;;;;5054276;28;20458;-78
2024/03/14 04:24:32;;;;;;;17.20;12.32;;;10.80;89.90;;;;;;5054164;28;20476;-79
2024/03/14 04:26:58;;;;;;;16.90;12.60;;;10.80;90.00;;;;;;5054160;28;20049;-77
2024/03/14 04:29:26;;;;;;;18.13;12.68;;;10.80;89.80;;;;;;5054078;28;20067;-77
2024/03/14 04:31:52;;;;;;;17.17;12.18;;;10.70;89.50;;;;;;5035959;28;20036;-79
2024/03/14 04:34:20;;;;;;;16.83;11.95;;;10.80;90.00;;;;;;5053808;28;20021;-78
2024/03/14 04:36:47;;;;;;;18.83;12.07;;;10.80;90.00;;;;;;5054243;28;20138;-78
2024/03/14 04:39:14;;;;;;;20.25;12.80;;;10.80;89.90;;;;;;5054023;28;20040;-78
2024/03/14 04:41:41;;;;;;;17.15;12.65;;;10.80;89.80;;;;;;5054354;28;20055;-79
2024/03/14 04:44:10;;;;;;;13.90;11.60;;;10.70;89.80;;;;;;5057290;28;20087;-78
2024/03/14 04:46:36;;;;;;;16.08;13.07;;;10.60;90.00;;;;;;5059544;28;20051;-77
2024/03/14 04:49:02;;;;;;;17.33;12.05;;;10.60;90.10;;;;;;5053512;28;20024;-78
2024/03/14 04:51:30;;;;;;;17.27;11.63;;;10.70;90.00;;;;;;5053871;28;20033;-78
2024/03/14 04:53:57;;;;;;;17.05;10.80;;;10.70;90.10;;;;;;5053722;28;20465;-79
2024/03/14 04:56:23;;;;;;;18.20;10.68;;;10.70;90.10;;;;;;5053699;28;20048;-78
2024/03/14 04:58:50;;;;;;;14.27;10.85;;;10.70;89.80;;;;;;5053627;28;20107;-79
2024/03/14 05:01:16;;;;;;;21.08;11.63;;;10.70;89.90;;;;;;5053896;28;20045;-75
2024/03/14 05:03:41;;;;;;;14.55;10.48;;;10.70;89.90;;;;;;5053473;28;20033;-77
2024/03/14 05:06:07;;;;;;;17.02;10.43;;;10.70;89.70;;;;;;5053541;28;20048;-77
2024/03/14 05:08:33;;;;;;;17.23;10.75;;;10.70;89.80;;;;;;5053441;28;20457;-78
2024/03/14 05:10:58;;;;;;;16.33;11.38;;;10.70;89.80;;;;;;5035549;28;20033;-78
2024/03/14 05:13:24;;;;;;;15.02;11.05;;;10.60;89.90;;;;;;5053533;28;20116;-77
2024/03/14 05:15:50;;;;;;;18.48;12.30;;;10.60;89.90;;;;;;5053245;28;20500;-78
2024/03/14 05:18:15;;;;;;;15.88;11.55;;;10.60;89.80;;;;;;5053188;28;20174;-79
2024/03/14 05:20:41;;;;;;;17.15;12.35;;;10.70;90.00;;;;;;5053162;28;20079;-78
2024/03/14 05:23:07;;;;;;;16.15;11.70;;;10.60;90.00;;;;;;5053239;28;20111;-78
2024/03/14 05:25:32;;;;;;;16.50;12.20;;;10.60;89.90;;;;;;5052809;28;20039;-79
2024/03/14 05:27:58;;;;;;;16.88;11.43;;;10.60;90.20;;;;;;5052919;28;20571;-78
2024/03/14 05:30:24;;;;;;;14.57;11.48;;;10.60;90.00;;;;;;5053349;28;20455;-77
2024/03/14 05:32:51;;;;;;;16.45;12.35;;;10.60;90.00;;;;;;5052677;28;20083;-77
2024/03/14 05:35:18;;;;;;;16.20;12.63;;;10.70;90.10;;;;;;5052673;28;20041;-79
2024/03/14 05:37:44;;;;;;;16.63;13.50;;;10.60;90.00;;;;;;5035104;28;20136;-79
2024/03/14 05:40:12;;;;;;;18.85;11.82;;;10.70;90.00;;;;;;5053516;28;20519;-78
2024/03/14 05:42:39;;;;;;;16.67;11.65;;;10.70;90.00;;;;;;5060551;28;20059;-78
2024/03/14 05:45:05;;;;;;;15.88;11.55;;;10.70;90.00;;;;;;5041056;28;20029;-79
2024/03/14 05:47:31;;;;;;;15.02;11.73;;;10.70;90.00;;;;;;5052882;28;20342;-78
2024/03/14 05:49:56;;;;;;;18.08;11.80;;;10.60;90.00;;;;;;5052753;28;20029;-79
2024/03/14 05:52:22;;;;;;;20.40;11.57;;;10.70;90.00;;;;;;5052611;28;20104;-78
2024/03/14 05:54:48;;;;;;;17.08;10.68;;;10.70;89.90;;;;;;5052535;28;20037;-78
2024/03/14 05:57:14;;;;;;;17.08;11.40;;;10.70;90.00;;;;;;5052506;28;20087;-79
2024/03/14 05:59:40;;;;;;;16.65;10.80;;;10.70;90.10;;;;;;5052295;28;20040;-78
2024/03/14 06:02:09;;;;;;;14.18;10.15;;;10.80;89.90;;;;;;5034898;28;20432;-78
2024/03/14 06:04:35;;;;;;;17.92;9.93;;;10.80;89.60;;;;;;5056166;28;20037;-77
2024/03/14 06:07:01;;;;;;;11.95;9.20;;;10.90;89.70;;;;;;5055740;28;20055;-79
2024/03/14 06:09:39;;;;;;;14.55;9.68;;;10.90;89.50;;;;;;5054145;28;20029;-79
2024/03/14 06:12:05;;;;;;;16.02;9.40;;;11.00;89.20;;;;;;5052564;28;20041;-77
2024/03/14 06:14:32;;;;;;;15.65;9.10;;;11.00;89.40;;;;;;5034761;28;20124;-78
2024/03/14 06:16:58;;;;;;;12.68;9.40;;;11.10;89.20;;;;;;5052547;28;20059;-78
2024/03/14 06:19:24;;;;;;;17.38;10.07;;;11.10;89.00;;;;;;5053630;28;20037;-80
2024/03/14 06:21:50;;;;;;;14.10;10.55;;;11.20;88.90;;;;;;5053001;28;20195;-78
2024/03/14 06:24:16;;;;;;;14.52;10.30;;;11.40;88.80;;;;;;5052520;28;20037;-78
2024/03/14 06:26:43;;;;;;;13.90;9.98;;;12.10;87.80;;;;;;5052586;28;20033;-78
2024/03/14 06:29:09;;;;;;;17.35;10.85;;;12.60;86.10;;;;;;5052453;28;20033;-80
2024/03/14 06:31:35;;;;;;;17.42;9.63;;;13.30;85.00;;;;;;5052532;28;20134;-79
2024/03/14 06:34:01;;;;;;;17.25;9.10;;;14.20;82.00;;;;;;5051933;28;20488;-79
2024/03/14 06:36:27;;;;;;;13.23;9.68;;;14.80;80.10;;;;;;5052457;28;20496;-77
2024/03/14 06:38:55;;;;;;;14.52;9.30;;;15.60;78.40;;;;;;5034243;28;20071;-78
2024/03/14 06:41:21;;;;;;;13.55;9.15;;;16.30;76.60;;;;;;5052853;28;20455;-78
2024/03/14 06:43:47;;;;;;;12.63;8.20;;;16.90;74.90;;;;;;5052449;28;20493;-79
2024/03/14 06:46:16;;;;;;;14.55;8.75;;;17.20;73.80;;;;;;5033913;28;20063;-79
2024/03/14 06:48:41;;;;;;;18.25;10.13;;;17.60;73.00;;;;;;5053003;28;20025;-74
2024/03/14 06:51:07;;;;;;;19.10;9.10;;;17.80;72.10;;;;;;5052302;28;20040;-77
2024/03/14 06:53:33;;;;;;;11.90;7.90;;;18.10;71.30;;;;;;5052705;28;20025;-78
2024/03/14 06:55:59;;;;;;;10.35;7.45;;;18.70;69.70;;;;;;5052476;28;20071;-76
2024/03/14 06:58:24;;;;;;;16.27;7.55;;;19.10;68.00;;;;;;5051972;28;20029;-75
2024/03/14 07:00:50;;;;;;;13.95;9.05;;;19.30;67.30;;;;;;5051860;28;20408;-77
2024/03/14 07:03:16;;;;;;;14.65;7.32;;;19.70;66.70;;;;;;5052615;28;20036;-78
2024/03/14 07:05:45;;;;;;;15.50;9.70;;;20.00;65.30;;;;;;5034605;28;20404;-74
2024/03/14 07:08:11;;;;;;;17.67;9.35;;;20.20;65.10;;;;;;5052153;28;20115;-75
2024/03/14 07:10:39;;;;;;;9.88;7.65;;;20.50;63.80;;;;;;5052880;28;20043;-76
2024/03/14 07:13:07;;;;;;;14.32;7.93;;;20.70;63.20;;;;;;5055009;28;20033;-75
2024/03/14 07:15:35;;;;;;;11.35;7.45;;;20.90;62.30;;;;;;5037585;28;20069;-76
2024/03/14 07:18:05;;;;;;;13.18;7.82;;;21.00;61.80;;;;;;5055487;28;20419;-75
2024/03/14 07:20:35;;;;;;;16.33;7.47;;;21.30;61.40;;;;;;5055719;28;20416;-74
2024/03/14 07:23:01;;;;;;;13.63;7.35;;;21.50;60.50;;;;;;5055596;28;20518;-76
2024/03/14 07:25:27;;;;;;;9.95;6.40;;;21.60;59.90;;;;;;5055744;28;20033;-75
2024/03/14 07:27:52;;;;;;;13.30;6.55;;;21.90;58.70;;;;;;5055359;28;20353;-74
2024/03/14 07:30:22;;;;;;;12.05;6.43;;;22.00;58.20;;;;;;5037769;28;20037;-78
2024/03/14 07:32:48;;;;;;;9.63;6.53;;;21.90;57.90;;;;;;5055563;28;20484;-76
2024/03/14 07:35:14;;;;;;;17.23;6.90;;;21.80;57.50;;;;;;5055530;28;20094;-75
2024/03/14 07:37:40;;;;;;;12.00;7.25;;;21.80;56.70;;;;;;5055341;28;20392;-77
2024/03/14 07:40:11;;;;;;;12.40;6.50;;;21.40;56.30;;;;;;5055052;28;20045;-74
2024/03/14 07:42:40;;;;;;;14.20;6.38;;;20.30;58.10;;;;;;5055127;28;20064;-70
2024/03/14 07:45:18;;;;;;;11.32;6.47;;;19.10;60.10;;;;;;5055129;28;20044;-73
2024/03/14 07:47:45;;;;;;;13.32;6.72;;;18.30;61.70;;;;;;5055531;28;20496;-73
2024/03/14 07:50:11;;;;;;;12.45;7.18;;;17.70;64.10;;;;;;5055144;28;20109;-73
2024/03/14 07:52:37;;;;;;;12.45;7.03;;;17.30;64.80;;;;;;5055135;28;20045;-77
2024/03/14 07:55:07;;;;;;;16.55;7.22;;;16.90;66.00;;;;;;5054809;28;20040;-75
2024/03/14 07:57:36;;;;;;;10.73;6.78;;;16.80;66.70;;;;;;5054931;28;20389;-76
2024/03/14 08:00:08;;;;;;;13.73;7.45;;;16.60;67.00;;;;;;5054503;28;20076;-75
2024/03/14 08:02:42;;;;;;;10.73;6.97;;;16.40;67.70;;;;;;5054758;28;20532;-73
2024/03/14 08:05:08;;;;;;;12.95;7.68;;;16.20;68.40;;;;;;5055983;28;20021;-76
2024/03/14 08:07:34;;;;;;;12.18;7.20;;;16.00;67.90;;;;;;5054774;28;20047;-72
2024/03/14 08:10:00;;;;;;;15.88;7.32;;;16.00;68.90;;;;;;5054477;28;20037;-70
2024/03/14 08:12:31;;;;;;;15.18;8.05;;;15.90;69.10;;;;;;5036788;28;20587;-74
2024/03/14 08:15:25;;;;;;;13.95;7.53;;;16.00;69.60;;;;;;5054630;28;20035;-74
2024/03/14 08:17:53;;;;;;;20.55;7.90;;;16.00;69.60;;;;;;5054811;28;20126;-75
2024/03/14 08:20:24;;;;;;;10.95;8.05;;;16.00;69.70;;;;;;5054597;28;20057;-74
2024/03/14 08:22:52;;;;;;;9.35;6.55;;;16.00;69.70;;;;;;5054102;28;20045;-74
2024/03/14 08:25:19;;;;;;;15.27;7.85;;;15.80;69.50;;;;;;5053756;28;20556;-74
2024/03/14 08:27:47;;;;;;;15.60;8.18;;;15.80;69.90;;;;;;5054155;28;20049;-73
2024/03/14 08:30:13;;;;;;;15.40;8.93;;;15.70;69.90;;;;;;5054091;28;20116;-74
2024/03/14 08:32:39;;;;;;;18.23;8.60;;;15.60;70.10;;;;;;5044531;28;20128;-73
2024/03/14 08:35:06;;;;;;;110.32;18.23;;;15.60;70.40;;;;;;5051802;28;20060;-71
2024/03/14 08:37:32;;;;;;;23.08;10.30;;;15.60;70.90;;;;;;5053721;28;20143;-70
2024/03/14 08:40:00;;;;;;;20.65;8.07;;;15.70;71.80;;;;;;5053726;28;20072;-71
2024/03/14 08:42:32;;;;;;;16.13;8.38;;;15.60;71.20;;;;;;5035561;28;20080;-71
2024/03/14 08:44:59;;;;;;;35.72;9.80;;;15.60;71.20;;;;;;5018400;28;20041;-72
2024/03/14 08:47:25;;;;;;;24.90;9.02;;;15.60;71.10;;;;;;5053556;28;20488;-71
2024/03/14 08:49:51;;;;;;;23.05;9.02;;;15.60;71.20;;;;;;5049064;28;20041;-70
2024/03/14 08:52:16;;;;;;;202.95;20.58;;;15.60;71.30;;;;;;5049154;28;20041;-71
2024/03/14 08:54:45;;;;;;;33.75;9.15;;;15.60;71.40;;;;;;5049216;28;20033;-72
2024/03/14 08:57:12;;;;;;;15.07;7.85;;;15.60;71.40;;;;;;5050532;28;20043;-72
2024/03/14 08:59:39;;;;;;;11.70;7.70;;;15.60;71.40;;;;;;5036007;28;20133;-72
2024/03/14 09:02:09;;;;;;;10.23;7.20;;;15.60;72.10;;;;;;5033187;28;20034;-73
2024/03/14 09:04:35;;;;;;;15.50;7.30;;;15.50;71.30;;;;;;5039845;28;20029;-72
2024/03/14 09:07:06;;;;;;;14.30;7.85;;;15.50;71.30;;;;;;5051345;28;20473;-76
2024/03/14 09:09:34;;;;;;;21.50;7.43;;;15.60;71.40;;;;;;5050786;28;20025;-75
2024/03/14 09:12:13;;;;;;;13.00;7.65;;;15.60;71.50;;;;;;5046683;28;20106;-76
2024/03/14 09:14:40;;;;;;;19.58;8.05;;;15.60;71.50;;;;;;5050976;28;20037;-76
2024/03/14 09:17:07;;;;;;;13.07;7.63;;;15.60;71.30;;;;;;5032239;28;20045;-73
2024/03/14 09:19:33;;;;;;;12.70;8.27;;;15.70;71.70;;;;;;5050342;28;20029;-75
2024/03/14 09:21:58;;;;;;;15.32;8.60;;;15.70;71.40;;;;;;5050790;28;20043;-75
2024/03/14 09:24:25;;;;;;;13.23;8.57;;;15.80;71.30;;;;;;5051260;28;20102;-73
2024/03/14 09:26:51;;;;;;;12.63;8.00;;;15.80;71.30;;;;;;5051932;28;20044;-75
2024/03/14 09:29:17;;;;;;;13.32;8.30;;;15.80;71.20;;;;;;5052131;28;20040;-76
2024/03/14 09:31:46;;;;;;;11.55;8.70;;;15.90;71.40;;;;;;5052103;28;20075;-73
2024/03/14 09:34:11;;;;;;;13.88;8.70;;;16.00;71.60;;;;;;5051558;28;20033;-70
2024/03/14 09:36:37;;;;;;;15.55;9.07;;;15.90;71.10;;;;;;5052186;28;20090;-73
2024/03/14 09:39:13;;;;;;;15.13;8.23;;;16.00;71.00;;;;;;5051855;28;20040;-74
2024/03/14 09:41:39;;;;;;;13.75;8.93;;;16.00;71.00;;;;;;5052066;28;20045;-73
2024/03/14 09:44:05;;;;;;;13.77;8.38;;;16.10;71.20;;;;;;5032146;28;20037;-71
2024/03/14 09:46:34;;;;;;;14.55;8.70;;;16.20;71.00;;;;;;5051676;28;20504;-74
2024/03/14 09:49:01;;;;;;;14.18;7.47;;;16.30;71.70;;;;;;5033296;28;20103;-70
2024/03/14 09:51:27;;;;;;;11.25;7.15;;;16.40;71.50;;;;;;5051347;28;20067;-68
2024/03/14 09:53:56;;;;;;;18.33;7.65;;;16.50;71.10;;;;;;5051278;28;20086;-72
2024/03/14 09:56:22;;;;;;;13.55;7.13;;;16.50;71.50;;;;;;5051434;28;20037;-71
2024/03/14 09:58:48;;;;;;;11.70;6.93;;;16.60;71.10;;;;;;5040457;28;20034;-71
2024/03/14 10:01:15;;;;;;;11.15;7.00;;;16.70;71.00;;;;;;5031830;28;20041;-71
2024/03/14 10:03:41;;;;;;;11.43;6.07;;;16.80;70.60;;;;;;5032097;28;20045;-73
2024/03/14 10:06:18;;;;;;;9.57;5.15;;;16.80;70.00;;;;;;5037527;28;20069;-71
2024/03/14 10:08:53;;;;;;;9.45;4.90;;;16.90;70.10;;;;;;5014703;28;20037;-73
2024/03/14 10:11:20;;;;;;;14.93;5.97;;;16.90;69.60;;;;;;5042231;28;20037;-73
2024/03/14 10:13:47;;;;;;;11.57;6.20;;;16.90;69.20;;;;;;5052195;28;20068;-76
2024/03/14 10:16:15;;;;;;;8.35;5.15;;;16.90;69.00;;;;;;5045432;28;20041;-78
2024/03/14 10:18:46;;;;;;;9.25;5.50;;;16.90;68.90;;;;;;5031779;28;20049;-79
2024/03/14 10:21:12;;;;;;;11.80;5.93;;;17.00;69.00;;;;;;5030324;28;20030;-79
2024/03/14 10:23:39;;;;;;;8.90;5.30;;;17.20;69.00;;;;;;5031172;28;20067;-78
2024/03/14 10:26:07;;;;;;;14.40;5.72;;;17.30;69.00;;;;;;5032622;28;20036;-79
2024/03/14 10:28:33;;;;;;;11.82;5.22;;;17.40;68.70;;;;;;5032482;28;20034;-80
2024/03/14 10:31:02;;;;;;;8.75;5.43;;;17.40;68.50;;;;;;5032574;28;20095;-77
2024/03/14 10:33:28;;;;;;;9.70;5.75;;;17.60;68.60;;;;;;5033448;28;20037;-78
2024/03/14 10:35:58;;;;;;;9.65;5.45;;;17.70;68.30;;;;;;5032993;28;20033;-78
2024/03/14 10:38:25;;;;;;;7.07;5.05;;;17.80;68.10;;;;;;5033408;28;20108;-79
2024/03/14 10:40:57;;;;;;;9.80;5.72;;;17.80;67.80;;;;;;5032937;28;20063;-77
2024/03/14 10:43:31;;;;;;;8.68;5.30;;;17.90;67.80;;;;;;5032674;28;20041;-79
2024/03/14 10:45:57;;;;;;;10.57;5.07;;;18.00;67.70;;;;;;5032501;28;20492;-79
2024/03/14 10:48:24;;;;;;;10.02;5.57;;;18.10;67.80;;;;;;5036142;28;20034;-78
2024/03/14 10:50:54;;;;;;;10.65;4.80;;;18.20;67.80;;;;;;5036295;28;20036;-79
2024/03/14 10:53:21;;;;;;;11.60;4.53;;;18.30;67.60;;;;;;5036071;28;20041;-79
2024/03/14 10:55:50;;;;;;;18.10;4.70;;;18.30;67.50;;;;;;5036367;28;20029;-79
2024/03/14 10:58:18;;;;;;;11.68;4.32;;;18.40;67.20;;;;;;5036236;28;20030;-77
2024/03/14 11:00:45;;;;;;;13.15;4.60;;;18.50;67.40;;;;;;5036203;28;20095;-78
2024/03/14 11:03:17;;;;;;;13.73;4.32;;;18.60;67.50;;;;;;5036259;28;20049;-78
2024/03/14 11:05:51;;;;;;;8.25;4.28;;;18.70;67.20;;;;;;5036265;28;20065;-79
2024/03/14 11:08:21;;;;;;;7.90;3.53;;;18.70;67.10;;;;;;5036080;28;20045;-77
2024/03/14 11:10:51;;;;;;;10.65;3.88;;;18.80;66.70;;;;;;5035939;28;20436;-79
2024/03/14 11:13:27;;;;;;;6.40;3.55;;;18.80;66.60;;;;;;5036181;28;20521;-79
2024/03/14 11:15:56;;;;;;;6.47;3.20;;;18.80;66.40;;;;;;5035870;28;20025;-79
2024/03/14 11:18:32;;;;;;;7.68;3.08;;;18.90;66.80;;;;;;5035594;28;20042;-78
2024/03/14 11:21:03;;;;;;;6.93;3.28;;;19.00;66.10;;;;;;5035401;28;20473;-78
2024/03/14 11:23:30;;;;;;;7.47;3.10;;;19.10;65.80;;;;;;5035618;28;20026;-79
2024/03/14 11:26:02;;;;;;;8.55;3.30;;;19.20;65.50;;;;;;5036105;28;20044;-78
2024/03/14 11:28:31;;;;;;;11.25;3.92;;;19.30;65.50;;;;;;5035669;28;20037;-77
2024/03/14 11:30:57;;;;;;;8.38;3.33;;;19.50;65.40;;;;;;5018002;28;20347;-78
2024/03/14 11:33:29;;;;;;;8.60;2.90;;;19.50;65.40;;;;;;5036197;28;20040;-79
2024/03/14 11:35:56;;;;;;;8.77;3.47;;;19.60;65.20;;;;;;5038411;28;20397;-79
2024/03/14 11:38:23;;;;;;;9.05;3.20;;;19.70;65.10;;;;;;5037271;28;20041;-78
2024/03/14 11:40:55;;;;;;;24.38;3.50;;;19.90;65.20;;;;;;5035745;28;20049;-78
2024/03/14 11:43:24;;;;;;;6.32;2.58;;;20.00;64.90;;;;;;5035521;28;20053;-78
2024/03/14 11:45:59;;;;;;;6.18;2.92;;;20.10;64.20;;;;;;5035941;28;20389;-79
2024/03/14 11:48:29;;;;;;;8.93;3.20;;;20.20;63.70;;;;;;5035326;28;20539;-79
2024/03/14 11:50:58;;;;;;;7.25;3.22;;;20.20;62.60;;;;;;5035246;28;20030;-79
2024/03/14 11:53:25;;;;;;;7.05;2.95;;;20.20;63.00;;;;;;5035139;28;20041;-80
2024/03/14 11:55:52;;;;;;;8.02;2.80;;;20.20;63.40;;;;;;5034857;28;20029;-73
2024/03/14 11:58:20;;;;;;;8.95;3.00;;;20.20;63.40;;;;;;5033480;28;20037;-72
2024/03/14 12:00:47;;;;;;;6.95;2.60;;;20.30;63.20;;;;;;5034812;28;20072;-71
2024/03/14 12:03:15;;;;;;;6.47;2.72;;;20.10;63.80;;;;;;5034527;28;20087;-75
2024/03/14 12:05:44;;;;;;;5.85;2.13;;;20.10;64.20;;;;;;5034976;28;20022;-73
2024/03/14 12:08:15;;;;;;;5.88;2.20;;;20.20;64.30;;;;;;5034754;28;20038;-73
2024/03/14 12:10:42;;;;;;;6.95;2.58;;;20.20;64.50;;;;;;5016652;28;20045;-72
2024/03/14 12:13:19;;;;;;;9.27;2.22;;;20.30;64.80;;;;;;5034472;28;20045;-74
2024/03/14 12:15:45;;;;;;;6.10;2.30;;;20.30;64.60;;;;;;5016574;28;20037;-73
2024/03/14 12:18:11;;;;;;;7.80;2.28;;;20.40;64.50;;;;;;5056171;28;20076;-72
2024/03/14 12:20:37;;;;;;;9.20;2.45;;;20.40;64.20;;;;;;5073142;28;20500;-72
2024/03/14 12:23:07;;;;;;;6.45;2.50;;;20.40;63.80;;;;;;5073881;28;20032;-73
2024/03/14 12:25:37;;;;;;;5.95;2.30;;;20.40;63.90;;;;;;5074283;28;20496;-74
2024/03/14 12:28:03;;;;;;;10.48;2.70;;;20.30;63.50;;;;;;5073873;28;20033;-72
2024/03/14 12:30:33;;;;;;;7.93;2.33;;;20.40;63.50;;;;;;5073662;28;20036;-73
2024/03/14 12:33:01;;;;;;;7.70;2.63;;;20.50;62.70;;;;;;5073738;28;20128;-73
2024/03/14 12:35:27;;;;;;;10.40;2.80;;;20.50;62.10;;;;;;5056135;28;20538;-73
2024/03/14 12:37:54;;;;;;;7.40;2.13;;;20.70;61.00;;;;;;5074097;28;20498;-72
2024/03/14 12:40:23;;;;;;;5.65;2.35;;;20.70;59.80;;;;;;5073931;28;20036;-74
2024/03/14 12:42:53;;;;;;;7.82;2.38;;;20.80;59.40;;;;;;5075164;28;20071;-75
2024/03/14 12:45:20;;;;;;;7.18;1.80;;;20.90;58.70;;;;;;5075261;28;20487;-73
2024/03/14 12:47:47;;;;;;;6.93;2.22;;;20.90;58.50;;;;;;5060512;28;20124;-71
2024/03/14 12:50:20;;;;;;;5.35;2.13;;;20.90;58.00;;;;;;5054037;28;20033;-73
2024/03/14 12:52:59;;;;;;;6.93;2.10;;;21.00;57.50;;;;;;5053942;28;20094;-73
2024/03/14 12:55:25;;;;;;;4.65;1.80;;;21.00;57.00;;;;;;5053476;28;20481;-74
2024/03/14 12:57:51;;;;;;;4.82;1.75;;;20.90;56.60;;;;;;5053514;28;20045;-74
2024/03/14 13:00:17;;;;;;;6.22;1.88;;;20.90;56.40;;;;;;5057314;28;20070;-74
2024/03/14 13:02:49;;;;;;;6.30;1.83;;;20.90;56.00;;;;;;5064232;28;20033;-76
2024/03/14 13:05:19;;;;;;;6.53;1.58;;;21.00;55.00;;;;;;5055432;28;20385;-74
2024/03/14 13:08:04;;;;;;;4.65;1.55;;;21.00;54.80;;;;;;5073533;28;20048;-76
2024/03/14 13:10:35;;;;;;;7.10;1.27;;;21.00;53.80;;;;;;5072910;28;20056;-74
2024/03/14 13:13:13;;;;;;;5.97;1.35;;;21.00;53.50;;;;;;5072836;28;20044;-75
2024/03/14 13:15:46;;;;;;;4.50;1.90;;;21.10;53.10;;;;;;5073220;28;20369;-75
2024/03/14 13:18:21;;;;;;;2.78;1.20;;;21.10;53.10;;;;;;5073070;28;20043;-75
2024/03/14 13:20:57;;;;;;;5.95;1.77;;;21.20;53.60;;;;;;5073146;28;20029;-75
2024/03/14 13:23:22;;;;;;;5.38;1.90;;;21.20;52.80;;;;;;5073453;28;20038;-74
2024/03/14 13:25:48;;;;;;;7.50;1.98;;;21.10;52.40;;;;;;5055397;28;20484;-75
2024/03/14 13:28:14;;;;;;;5.80;2.03;;;21.20;52.30;;;;;;5072810;28;20037;-74
2024/03/14 13:30:43;;;;;;;8.65;2.20;;;21.30;52.40;;;;;;5059939;28;20037;-74
2024/03/14 13:33:14;;;;;;;7.63;1.80;;;21.30;52.20;;;;;;5051436;28;20075;-76
2024/03/14 13:35:40;;;;;;;4.85;1.83;;;21.30;52.30;;;;;;5052075;28;20025;-74
2024/03/14 13:38:12;;;;;;;5.07;1.77;;;21.30;52.80;;;;;;5052233;28;20579;-73